createdAt,value
2022-08-25T00:00:41.052Z,17.85
2022-08-25T00:01:36.069Z,17.83
2022-08-25T00:02:31.222Z,17.85
2022-08-25T00:03:26.228Z,17.84
2022-08-25T00:04:21.213Z,17.86
2022-08-25T00:05:16.337Z,17.86
2022-08-25T00:06:13.842Z,17.88
2022-08-25T00:07:08.921Z,17.89
2022-08-25T00:08:04.056Z,17.87
2022-08-25T00:08:59.002Z,17.80
2022-08-25T00:09:54.101Z,17.75
2022-08-25T00:10:59.920Z,17.71
2022-08-25T00:11:45.321Z,17.70
2022-08-25T00:12:39.321Z,17.74
2022-08-25T00:13:34.458Z,17.74
2022-08-25T00:14:29.551Z,17.73
2022-08-25T00:15:24.637Z,17.69
2022-08-25T00:16:19.797Z,17.67
2022-08-25T00:17:14.801Z,17.63
2022-08-25T00:18:16.944Z,17.64
2022-08-25T00:19:05.925Z,17.63
2022-08-25T00:19:59.980Z,17.60
2022-08-25T00:20:55.168Z,17.57
2022-08-25T00:21:50.401Z,17.51
2022-08-25T00:22:45.503Z,17.40
2022-08-25T00:23:40.907Z,17.31
2022-08-25T00:24:36.105Z,17.30
2022-08-25T00:25:31.219Z,17.30
2022-08-25T00:26:26.453Z,17.36
2022-08-25T00:27:21.556Z,17.39
2022-08-25T00:28:16.776Z,17.37
2022-08-25T00:29:12.006Z,17.35
2022-08-25T00:30:07.148Z,17.32
2022-08-25T00:31:02.439Z,17.34
2022-08-25T00:31:57.663Z,17.34
2022-08-25T00:32:57.201Z,17.32
2022-08-25T00:33:48.264Z,17.26
2022-08-25T00:34:43.516Z,17.23
2022-08-25T00:35:38.726Z,17.25
2022-08-25T00:36:33.848Z,17.28
2022-08-25T00:37:29.063Z,17.34
2022-08-25T00:38:24.262Z,17.34
2022-08-25T00:39:19.402Z,17.34
2022-08-25T00:40:14.549Z,17.32
2022-08-25T00:41:09.742Z,17.32
2022-08-25T00:42:04.853Z,17.31
2022-08-25T00:43:01.002Z,17.29
2022-08-25T00:43:55.151Z,17.29
2022-08-25T00:44:50.420Z,17.30
2022-08-25T00:45:45.502Z,17.30
2022-08-25T00:46:40.656Z,17.27
2022-08-25T00:47:35.703Z,17.27
2022-08-25T00:48:31.040Z,17.27
2022-08-25T00:49:26.161Z,17.24
2022-08-25T00:50:21.369Z,17.26
2022-08-25T00:51:16.502Z,17.31
2022-08-25T00:52:11.581Z,17.31
2022-08-25T00:53:06.640Z,17.30
2022-08-25T00:54:01.740Z,17.32
2022-08-25T00:54:56.837Z,17.37
2022-08-25T00:55:52.078Z,17.38
2022-08-25T00:56:47.182Z,17.39
2022-08-25T00:57:42.255Z,17.37
2022-08-25T00:58:37.317Z,17.33
2022-08-25T00:59:32.456Z,17.29
2022-08-25T01:00:27.404Z,17.27
2022-08-25T01:01:22.520Z,17.28
2022-08-25T01:02:17.518Z,17.30
2022-08-25T01:03:12.577Z,17.32
2022-08-25T01:04:07.675Z,17.32
2022-08-25T01:05:02.819Z,17.30
2022-08-25T01:05:57.790Z,17.26
2022-08-25T01:06:52.813Z,17.25
2022-08-25T01:07:47.812Z,17.22
2022-08-25T01:08:42.834Z,17.21
2022-08-25T01:09:37.906Z,17.19
2022-08-25T01:10:32.989Z,17.17
2022-08-25T01:11:28.063Z,17.16
2022-08-25T01:12:23.177Z,17.13
2022-08-25T01:13:18.301Z,17.12
2022-08-25T01:14:13.374Z,17.11
2022-08-25T01:15:10.221Z,17.11
2022-08-25T01:16:05.386Z,17.09
2022-08-25T01:17:00.314Z,17.08
2022-08-25T01:17:55.409Z,17.02
2022-08-25T01:18:50.492Z,16.96
2022-08-25T01:19:45.554Z,16.95
2022-08-25T01:20:40.729Z,16.97
2022-08-25T01:21:35.687Z,16.97
2022-08-25T01:22:30.677Z,16.95
2022-08-25T01:23:25.751Z,16.94
2022-08-25T01:24:20.810Z,16.93
2022-08-25T01:25:15.939Z,16.91
2022-08-25T01:26:11.029Z,16.88
2022-08-25T01:27:06.108Z,16.88
2022-08-25T01:28:01.238Z,16.89
2022-08-25T01:28:56.214Z,16.92
2022-08-25T01:29:51.327Z,16.96
2022-08-25T01:30:46.434Z,16.94
2022-08-25T01:31:41.518Z,16.90
2022-08-25T01:32:36.592Z,16.87
2022-08-25T01:33:31.661Z,16.84
2022-08-25T01:34:26.716Z,16.80
2022-08-25T01:35:21.789Z,16.79
2022-08-25T01:36:16.873Z,16.81
2022-08-25T01:37:12.073Z,16.80
2022-08-25T01:38:07.005Z,16.80
2022-08-25T01:39:02.115Z,16.81
2022-08-25T01:39:57.274Z,16.83
2022-08-25T01:40:52.242Z,16.83
2022-08-25T01:41:48.316Z,16.85
2022-08-25T01:42:43.381Z,16.90
2022-08-25T01:43:38.733Z,16.93
2022-08-25T01:44:33.873Z,16.92
2022-08-25T01:45:29.062Z,16.90
2022-08-25T01:46:24.264Z,16.87
2022-08-25T01:47:19.346Z,16.83
2022-08-25T01:48:14.609Z,16.79
2022-08-25T01:49:10.413Z,16.77
2022-08-25T01:50:05.612Z,16.76
2022-08-25T01:51:00.852Z,16.73
2022-08-25T01:51:56.526Z,16.70
2022-08-25T01:52:51.779Z,16.67
2022-08-25T01:53:47.637Z,16.67
2022-08-25T01:54:42.710Z,16.64
2022-08-25T01:55:38.095Z,16.59
2022-08-25T01:56:33.767Z,16.56
2022-08-25T01:57:29.028Z,16.58
2022-08-25T01:58:24.149Z,16.55
2022-08-25T01:59:24.333Z,16.55
2022-08-25T02:00:15.898Z,16.54
2022-08-25T02:01:11.758Z,16.54
2022-08-25T02:02:06.949Z,16.53
2022-08-25T02:03:02.164Z,16.53
2022-08-25T02:03:57.867Z,16.51
2022-08-25T02:04:53.080Z,16.52
2022-08-25T02:05:48.841Z,16.55
2022-08-25T02:06:43.975Z,16.60
2022-08-25T02:07:39.158Z,16.63
2022-08-25T02:08:35.281Z,16.64
2022-08-25T02:09:30.469Z,16.66
2022-08-25T02:10:25.715Z,16.67
2022-08-25T02:11:22.113Z,16.68
2022-08-25T02:12:17.429Z,16.70
2022-08-25T02:13:13.170Z,16.74
2022-08-25T02:14:08.372Z,16.78
2022-08-25T02:15:03.528Z,16.77
2022-08-25T02:15:59.384Z,16.76
2022-08-25T02:16:54.731Z,16.74
2022-08-25T02:17:50.673Z,16.75
2022-08-25T02:18:45.775Z,16.75
2022-08-25T02:19:41.176Z,16.74
2022-08-25T02:20:37.037Z,16.70
2022-08-25T02:21:32.282Z,16.69
2022-08-25T02:22:27.675Z,16.64
2022-08-25T02:23:23.779Z,16.61
2022-08-25T02:24:19.059Z,16.58
2022-08-25T02:25:14.888Z,16.60
2022-08-25T02:26:10.102Z,16.62
2022-08-25T02:27:05.343Z,16.62
2022-08-25T02:28:01.096Z,16.60
2022-08-25T02:28:56.181Z,16.60
2022-08-25T02:29:51.998Z,16.62
2022-08-25T02:30:47.211Z,16.62
2022-08-25T02:31:42.577Z,16.64
2022-08-25T02:32:38.260Z,16.66
2022-08-25T02:33:33.488Z,16.68
2022-08-25T02:34:28.579Z,16.70
2022-08-25T02:35:25.036Z,16.73
2022-08-25T02:36:20.338Z,16.72
2022-08-25T02:37:16.114Z,16.69
2022-08-25T02:38:11.323Z,16.66
2022-08-25T02:39:06.452Z,16.62
2022-08-25T02:40:02.348Z,16.62
2022-08-25T02:40:57.618Z,16.62
2022-08-25T02:41:53.268Z,16.61
2022-08-25T02:42:48.477Z,16.58
2022-08-25T02:43:43.760Z,16.53
2022-08-25T02:44:39.535Z,16.50
2022-08-25T02:45:34.745Z,16.48
2022-08-25T02:46:29.810Z,16.46
2022-08-25T02:47:26.884Z,16.45
2022-08-25T02:48:21.355Z,16.43
2022-08-25T02:49:16.559Z,16.43
2022-08-25T02:50:11.669Z,16.43
2022-08-25T02:51:08.301Z,16.41
2022-08-25T02:52:03.408Z,16.41
2022-08-25T02:52:58.515Z,16.40
2022-08-25T02:53:55.081Z,16.38
2022-08-25T02:54:50.356Z,16.36
2022-08-25T02:55:46.142Z,16.35
2022-08-25T02:56:41.345Z,16.39
2022-08-25T02:57:36.479Z,16.40
2022-08-25T02:58:32.267Z,16.40
2022-08-25T02:59:27.523Z,16.40
2022-08-25T03:00:23.331Z,16.40
2022-08-25T03:01:18.598Z,16.40
2022-08-25T03:02:13.794Z,16.37
2022-08-25T03:03:09.592Z,16.33
2022-08-25T03:04:04.720Z,16.33
2022-08-25T03:04:59.976Z,16.33
2022-08-25T03:05:56.311Z,16.27
2022-08-25T03:06:51.397Z,16.24
2022-08-25T03:07:46.589Z,16.22
2022-08-25T03:08:41.754Z,16.20
2022-08-25T03:09:36.969Z,16.22
2022-08-25T03:10:32.738Z,16.27
2022-08-25T03:11:27.984Z,16.32
2022-08-25T03:12:23.202Z,16.34
2022-08-25T03:13:19.039Z,16.33
2022-08-25T03:14:14.259Z,16.33
2022-08-25T03:15:13.259Z,16.29
2022-08-25T03:16:04.693Z,16.30
2022-08-25T03:17:00.559Z,16.29
2022-08-25T03:17:55.722Z,16.32
2022-08-25T03:18:51.995Z,16.31
2022-08-25T03:19:47.234Z,16.35
2022-08-25T03:20:42.395Z,16.34
2022-08-25T03:21:41.679Z,16.35
2022-08-25T03:22:36.915Z,16.35
2022-08-25T03:23:32.045Z,16.38
2022-08-25T03:24:27.251Z,16.39
2022-08-25T03:25:24.263Z,16.41
2022-08-25T03:26:17.445Z,16.40
2022-08-25T03:27:12.554Z,16.40
2022-08-25T03:28:13.610Z,16.40
2022-08-25T03:29:08.828Z,16.38
2022-08-25T03:30:03.914Z,16.38
2022-08-25T03:30:59.156Z,16.37
2022-08-25T03:31:54.727Z,16.32
2022-08-25T03:32:49.707Z,16.31
2022-08-25T03:33:44.954Z,16.31
2022-08-25T03:34:40.092Z,16.30
2022-08-25T03:35:35.289Z,16.27
2022-08-25T03:36:31.760Z,16.21
2022-08-25T03:37:26.895Z,16.15
2022-08-25T03:38:22.680Z,16.10
2022-08-25T03:39:17.920Z,16.05
2022-08-25T03:40:15.259Z,16.03
2022-08-25T03:41:08.886Z,16.02
2022-08-25T03:42:04.031Z,16.01
2022-08-25T03:42:59.820Z,15.99
2022-08-25T03:43:55.021Z,15.97
2022-08-25T03:44:50.289Z,15.93
2022-08-25T03:45:46.102Z,15.90
2022-08-25T03:46:41.207Z,15.91
2022-08-25T03:47:36.439Z,15.89
2022-08-25T03:48:32.797Z,15.89
2022-08-25T03:49:28.073Z,15.91
2022-08-25T03:50:23.826Z,15.90
2022-08-25T03:51:18.998Z,15.89
2022-08-25T03:52:14.167Z,15.92
2022-08-25T03:53:09.917Z,15.95
2022-08-25T03:54:05.204Z,15.95
2022-08-25T03:55:00.953Z,15.97
2022-08-25T03:55:56.306Z,15.95
2022-08-25T03:56:51.603Z,15.92
2022-08-25T03:57:47.227Z,15.93
2022-08-25T03:58:42.424Z,15.94
2022-08-25T03:59:37.623Z,15.93
2022-08-25T04:00:34.028Z,15.92
2022-08-25T04:01:29.328Z,15.88
2022-08-25T04:02:25.117Z,15.86
2022-08-25T04:03:20.299Z,15.85
2022-08-25T04:04:15.582Z,15.85
2022-08-25T04:05:11.363Z,15.85
2022-08-25T04:06:06.615Z,15.86
2022-08-25T04:07:02.388Z,15.85
2022-08-25T04:07:57.622Z,15.82
2022-08-25T04:08:52.951Z,15.79
2022-08-25T04:09:48.650Z,15.77
2022-08-25T04:10:43.930Z,15.78
2022-08-25T04:11:39.196Z,15.79
2022-08-25T04:12:35.713Z,15.78
2022-08-25T04:13:30.979Z,15.78
2022-08-25T04:14:26.839Z,15.79
2022-08-25T04:15:22.104Z,15.82
2022-08-25T04:16:17.419Z,15.84
2022-08-25T04:17:13.138Z,15.86
2022-08-25T04:18:08.434Z,15.86
2022-08-25T04:19:04.282Z,15.87
2022-08-25T04:19:59.418Z,15.92
2022-08-25T04:20:54.679Z,15.96
2022-08-25T04:21:49.901Z,15.98
2022-08-25T04:22:46.355Z,15.98
2022-08-25T04:23:41.637Z,15.94
2022-08-25T04:24:37.412Z,15.91
2022-08-25T04:25:32.723Z,15.88
2022-08-25T04:26:28.319Z,15.85
2022-08-25T04:27:23.945Z,15.81
2022-08-25T04:28:19.280Z,15.77
2022-08-25T04:29:15.080Z,15.75
2022-08-25T04:30:10.459Z,15.72
2022-08-25T04:31:05.966Z,15.69
2022-08-25T04:32:01.821Z,15.70
2022-08-25T04:32:57.119Z,15.70
2022-08-25T04:33:52.553Z,15.71
2022-08-25T04:34:48.761Z,15.74
2022-08-25T04:35:44.162Z,15.78
2022-08-25T04:36:39.537Z,15.83
2022-08-25T04:37:34.922Z,15.88
2022-08-25T04:38:32.087Z,15.91
2022-08-25T04:39:27.636Z,15.92
2022-08-25T04:40:27.958Z,15.91
2022-08-25T04:41:19.297Z,15.88
2022-08-25T04:42:13.722Z,15.84
2022-08-25T04:43:09.502Z,15.82
2022-08-25T04:44:04.884Z,15.84
2022-08-25T04:45:00.227Z,15.82
2022-08-25T04:45:55.805Z,15.81
2022-08-25T04:46:52.324Z,15.81
2022-08-25T04:47:51.707Z,15.82
2022-08-25T04:48:44.281Z,15.77
2022-08-25T04:49:38.613Z,15.76
2022-08-25T04:50:33.584Z,15.78
2022-08-25T04:51:28.707Z,15.84
2022-08-25T04:52:23.728Z,15.83
2022-08-25T04:53:18.705Z,15.84
2022-08-25T04:54:14.549Z,15.80
2022-08-25T04:55:12.888Z,15.80
2022-08-25T04:56:07.938Z,15.81
2022-08-25T04:57:03.009Z,15.81
2022-08-25T04:57:58.028Z,15.80
2022-08-25T04:58:53.192Z,15.81
2022-08-25T04:59:48.225Z,15.82
2022-08-25T05:00:43.304Z,15.82
2022-08-25T05:01:38.290Z,15.80
2022-08-25T05:02:33.328Z,15.80
2022-08-25T05:03:28.505Z,15.80
2022-08-25T05:04:28.194Z,15.82
2022-08-25T05:05:19.593Z,15.90
2022-08-25T05:06:16.069Z,16.10
2022-08-25T05:07:10.601Z,16.23
2022-08-25T05:08:05.855Z,16.24
2022-08-25T05:09:00.717Z,16.22
2022-08-25T05:09:55.784Z,16.20
2022-08-25T05:10:50.892Z,16.19
2022-08-25T05:11:46.159Z,16.22
2022-08-25T05:12:41.599Z,16.26
2022-08-25T05:13:36.917Z,16.27
2022-08-25T05:14:32.753Z,16.26
2022-08-25T05:15:28.135Z,16.26
2022-08-25T05:16:23.475Z,16.27
2022-08-25T05:17:18.821Z,16.28
2022-08-25T05:18:14.229Z,16.28
2022-08-25T05:19:09.674Z,16.30
2022-08-25T05:20:05.056Z,16.31
2022-08-25T05:21:00.550Z,16.29
2022-08-25T05:21:57.975Z,16.30
2022-08-25T05:22:51.260Z,16.30
2022-08-25T05:23:46.388Z,16.32
2022-08-25T05:24:41.509Z,16.33
2022-08-25T05:25:36.590Z,16.34
2022-08-25T05:26:31.617Z,16.36
2022-08-25T05:27:26.722Z,16.37
2022-08-25T05:28:21.915Z,16.40
2022-08-25T05:29:16.908Z,16.45
2022-08-25T05:30:14.208Z,16.51
2022-08-25T05:31:09.266Z,16.54
2022-08-25T05:32:04.369Z,16.58
2022-08-25T05:32:59.293Z,16.66
2022-08-25T05:33:54.316Z,16.71
2022-08-25T05:34:49.303Z,16.77
2022-08-25T05:35:44.297Z,16.83
2022-08-25T05:36:39.326Z,16.90
2022-08-25T05:37:34.355Z,16.91
2022-08-25T05:38:29.373Z,16.96
2022-08-25T05:39:26.986Z,17.00
2022-08-25T05:40:19.512Z,17.02
2022-08-25T05:41:14.530Z,17.04
2022-08-25T05:42:09.557Z,17.05
2022-08-25T05:43:04.624Z,17.05
2022-08-25T05:43:59.639Z,17.08
2022-08-25T05:44:54.847Z,17.12
2022-08-25T05:45:54.151Z,17.16
2022-08-25T05:46:49.574Z,17.17
2022-08-25T05:47:44.953Z,17.19
2022-08-25T05:48:40.415Z,17.22
2022-08-25T05:49:35.855Z,17.23
2022-08-25T05:50:31.431Z,17.27
2022-08-25T05:51:26.841Z,17.32
2022-08-25T05:52:22.220Z,17.37
2022-08-25T05:53:17.662Z,17.41
2022-08-25T05:54:13.105Z,17.42
2022-08-25T05:55:08.531Z,17.48
2022-08-25T05:56:04.041Z,17.50
2022-08-25T05:56:59.473Z,17.54
2022-08-25T05:57:55.467Z,17.59
2022-08-25T05:58:50.859Z,17.64
2022-08-25T05:59:45.849Z,17.65
2022-08-25T06:00:40.907Z,17.70
2022-08-25T06:01:35.977Z,17.73
2022-08-25T06:02:31.042Z,17.77
2022-08-25T06:03:26.253Z,17.82
2022-08-25T06:04:21.296Z,17.88
2022-08-25T06:05:16.303Z,17.96
2022-08-25T06:06:11.485Z,18.04
2022-08-25T06:07:06.441Z,18.12
2022-08-25T06:08:01.506Z,18.20
2022-08-25T06:08:57.369Z,18.28
2022-08-25T06:09:52.417Z,18.36
2022-08-25T06:10:47.456Z,18.45
2022-08-25T06:11:42.508Z,18.54
2022-08-25T06:12:38.765Z,18.60
2022-08-25T06:13:34.321Z,18.69
2022-08-25T06:14:29.675Z,18.79
2022-08-25T06:15:25.085Z,18.88
2022-08-25T06:16:20.590Z,18.93
2022-08-25T06:17:16.015Z,18.98
2022-08-25T06:18:11.468Z,19.06
2022-08-25T06:19:06.853Z,19.12
2022-08-25T06:20:02.327Z,19.19
2022-08-25T06:20:57.757Z,19.27
2022-08-25T06:21:53.213Z,19.36
2022-08-25T06:22:48.646Z,19.47
2022-08-25T06:23:44.092Z,19.58
2022-08-25T06:24:39.999Z,19.71
2022-08-25T06:25:35.413Z,19.81
2022-08-25T06:26:30.857Z,19.91
2022-08-25T06:27:26.280Z,20.02
2022-08-25T06:28:21.731Z,20.09
2022-08-25T06:29:17.310Z,20.18
2022-08-25T06:30:12.779Z,20.30
2022-08-25T06:31:07.891Z,20.38
2022-08-25T06:32:02.929Z,20.48
2022-08-25T06:32:57.978Z,20.55
2022-08-25T06:33:53.128Z,20.62
2022-08-25T06:34:48.199Z,20.73
2022-08-25T06:35:43.212Z,20.83
2022-08-25T06:36:38.250Z,20.90
2022-08-25T06:37:33.307Z,20.97
2022-08-25T06:38:28.329Z,20.99
2022-08-25T06:39:23.453Z,21.07
2022-08-25T06:40:18.623Z,21.10
2022-08-25T06:41:13.646Z,20.99
2022-08-25T06:42:08.744Z,20.92
2022-08-25T06:43:03.800Z,20.97
2022-08-25T06:44:04.722Z,21.08
2022-08-25T06:44:55.741Z,21.09
2022-08-25T06:45:50.222Z,21.16
2022-08-25T06:46:45.704Z,21.09
2022-08-25T06:47:41.968Z,21.03
2022-08-25T06:48:36.297Z,21.00
2022-08-25T06:49:35.575Z,20.98
2022-08-25T06:50:26.997Z,20.94
2022-08-25T06:51:21.486Z,20.77
2022-08-25T06:52:16.500Z,20.72
2022-08-25T06:53:11.515Z,20.72
2022-08-25T06:54:06.691Z,20.67
2022-08-25T06:55:01.716Z,20.70
2022-08-25T06:55:56.735Z,20.73
2022-08-25T06:56:51.766Z,20.77
2022-08-25T06:57:46.813Z,20.76
2022-08-25T06:58:41.847Z,20.77
2022-08-25T06:59:36.863Z,20.77
2022-08-25T07:00:32.102Z,20.80
2022-08-25T07:01:27.772Z,20.78
2022-08-25T07:02:23.212Z,20.74
2022-08-25T07:03:18.642Z,20.84
2022-08-25T07:04:14.101Z,20.94
2022-08-25T07:05:13.184Z,21.02
2022-08-25T07:06:04.935Z,21.09
2022-08-25T07:07:00.384Z,21.23
2022-08-25T07:07:55.793Z,21.38
2022-08-25T07:08:51.415Z,21.56
2022-08-25T07:09:46.892Z,21.68
2022-08-25T07:10:42.383Z,21.87
2022-08-25T07:11:38.830Z,21.93
2022-08-25T07:12:33.309Z,21.94
2022-08-25T07:13:28.802Z,21.90
2022-08-25T07:14:24.302Z,21.64
2022-08-25T07:15:20.717Z,21.55
2022-08-25T07:16:14.600Z,21.49
2022-08-25T07:17:12.458Z,21.48
2022-08-25T07:18:04.827Z,21.40
2022-08-25T07:19:00.133Z,21.52
2022-08-25T07:19:57.650Z,21.72
2022-08-25T07:20:49.868Z,21.99
2022-08-25T07:21:44.902Z,22.27
2022-08-25T07:22:39.987Z,22.57
2022-08-25T07:23:34.987Z,22.85
2022-08-25T07:24:31.139Z,22.99
2022-08-25T07:25:26.607Z,23.19
2022-08-25T07:26:36.761Z,23.37
2022-08-25T07:27:18.400Z,23.53
2022-08-25T07:28:12.767Z,23.65
2022-08-25T07:29:07.816Z,23.67
2022-08-25T07:30:02.878Z,23.49
2022-08-25T07:30:58.153Z,23.48
2022-08-25T07:31:53.071Z,23.60
2022-08-25T07:32:48.144Z,23.71
2022-08-25T07:33:44.204Z,23.83
2022-08-25T07:34:39.036Z,24.01
2022-08-25T07:35:37.466Z,24.19
2022-08-25T07:36:28.514Z,24.36
2022-08-25T07:37:48.526Z,24.44
2022-08-25T07:38:20.806Z,24.14
2022-08-25T07:39:14.322Z,23.86
2022-08-25T07:40:09.859Z,23.54
2022-08-25T07:41:05.222Z,23.33
2022-08-25T07:42:00.734Z,23.13
2022-08-25T07:42:56.235Z,23.00
2022-08-25T07:43:51.717Z,23.17
2022-08-25T07:44:47.214Z,23.42
2022-08-25T07:45:49.492Z,23.57
2022-08-25T07:46:39.172Z,23.58
2022-08-25T07:47:33.532Z,23.62
2022-08-25T07:48:29.043Z,23.75
2022-08-25T07:49:24.579Z,23.92
2022-08-25T07:50:20.037Z,24.07
2022-08-25T07:51:15.539Z,24.23
2022-08-25T07:52:10.950Z,24.51
2022-08-25T07:53:06.647Z,24.33
2022-08-25T07:54:01.479Z,24.29
2022-08-25T07:54:56.524Z,24.39
2022-08-25T07:55:51.727Z,24.35
2022-08-25T07:56:46.717Z,24.38
2022-08-25T07:57:41.796Z,24.28
2022-08-25T07:58:36.837Z,24.22
2022-08-25T07:59:39.002Z,23.94
2022-08-25T08:00:28.108Z,23.80
2022-08-25T08:01:22.097Z,23.72
2022-08-25T08:02:19.071Z,23.77
2022-08-25T08:03:35.216Z,23.78
2022-08-25T08:04:11.613Z,23.94
2022-08-25T08:05:06.012Z,23.93
2022-08-25T08:06:01.560Z,24.14
2022-08-25T08:06:56.982Z,24.46
2022-08-25T08:07:52.333Z,24.66
2022-08-25T08:08:47.937Z,24.65
2022-08-25T08:09:43.444Z,24.45
2022-08-25T08:10:54.123Z,24.34
2022-08-25T08:11:35.133Z,24.40
2022-08-25T08:12:29.691Z,24.60
2022-08-25T08:13:25.128Z,24.55
2022-08-25T08:14:20.661Z,24.59
2022-08-25T08:15:16.170Z,24.79
2022-08-25T08:16:11.619Z,24.95
2022-08-25T08:17:06.680Z,24.85
2022-08-25T08:18:01.727Z,25.04
2022-08-25T08:18:56.756Z,25.24
2022-08-25T08:19:52.007Z,25.26
2022-08-25T08:20:47.056Z,25.29
2022-08-25T08:21:42.043Z,25.06
2022-08-25T08:22:37.267Z,24.89
2022-08-25T08:23:32.373Z,24.65
2022-08-25T08:24:44.452Z,24.55
2022-08-25T08:25:27.342Z,24.75
2022-08-25T08:26:17.425Z,24.89
2022-08-25T08:27:12.441Z,25.00
2022-08-25T08:28:07.685Z,24.82
2022-08-25T08:29:02.638Z,24.60
2022-08-25T08:29:57.655Z,24.66
2022-08-25T08:30:53.312Z,24.92
2022-08-25T08:31:48.789Z,25.08
2022-08-25T08:33:06.224Z,25.29
2022-08-25T08:33:40.734Z,25.27
2022-08-25T08:34:34.251Z,25.13
2022-08-25T08:35:29.305Z,25.20
2022-08-25T08:36:25.477Z,25.33
2022-08-25T08:37:21.978Z,25.53
2022-08-25T08:38:19.587Z,25.48
2022-08-25T08:39:10.530Z,25.37
2022-08-25T08:40:04.615Z,25.12
2022-08-25T08:40:59.630Z,25.12
2022-08-25T08:42:10.878Z,25.33
2022-08-25T08:42:50.742Z,25.47
2022-08-25T08:43:44.859Z,25.64
2022-08-25T08:44:39.961Z,26.04
2022-08-25T08:45:40.580Z,26.43
2022-08-25T08:46:32.153Z,26.31
2022-08-25T08:47:26.468Z,26.09
2022-08-25T08:48:21.853Z,25.87
2022-08-25T08:49:16.929Z,25.62
2022-08-25T08:50:12.001Z,25.50
2022-08-25T08:51:09.761Z,25.48
2022-08-25T08:52:02.776Z,25.72
2022-08-25T08:52:57.116Z,26.10
2022-08-25T08:53:52.237Z,26.40
2022-08-25T08:54:47.266Z,26.37
2022-08-25T08:55:43.069Z,26.30
2022-08-25T08:56:38.187Z,26.38
2022-08-25T08:57:34.185Z,26.45
2022-08-25T08:58:28.285Z,26.60
2022-08-25T08:59:29.784Z,26.89
2022-08-25T09:00:20.787Z,27.26
2022-08-25T09:01:15.415Z,27.52
2022-08-25T09:02:13.757Z,27.44
2022-08-25T09:03:06.767Z,27.21
2022-08-25T09:04:01.987Z,26.83
2022-08-25T09:04:57.568Z,26.65
2022-08-25T09:05:53.058Z,26.76
2022-08-25T09:06:48.643Z,26.98
2022-08-25T09:07:44.175Z,27.28
2022-08-25T09:08:39.681Z,27.26
2022-08-25T09:09:36.240Z,26.95
2022-08-25T09:10:30.596Z,26.85
2022-08-25T09:11:26.559Z,26.99
2022-08-25T09:12:21.035Z,27.03
2022-08-25T09:13:16.023Z,27.06
2022-08-25T09:14:11.141Z,27.05
2022-08-25T09:15:12.573Z,27.09
2022-08-25T09:16:02.189Z,27.03
2022-08-25T09:16:56.237Z,26.77
2022-08-25T09:17:54.304Z,26.72
2022-08-25T09:18:51.594Z,26.43
2022-08-25T09:19:43.842Z,25.93
2022-08-25T09:20:38.958Z,25.70
2022-08-25T09:21:34.039Z,25.80
2022-08-25T09:22:35.182Z,25.65
2022-08-25T09:23:25.184Z,25.46
2022-08-25T09:24:19.323Z,25.36
2022-08-25T09:25:22.059Z,25.39
2022-08-25T09:26:12.291Z,25.36
2022-08-25T09:27:06.873Z,25.76
2022-08-25T09:28:02.397Z,26.29
2022-08-25T09:28:57.951Z,26.76
2022-08-25T09:29:53.474Z,26.89
2022-08-25T09:30:49.054Z,27.01
2022-08-25T09:31:44.500Z,27.32
2022-08-25T09:32:39.510Z,27.70
2022-08-25T09:33:35.658Z,28.23
2022-08-25T09:34:29.669Z,28.64
2022-08-25T09:35:24.765Z,28.86
2022-08-25T09:36:19.934Z,28.99
2022-08-25T09:37:14.869Z,28.83
2022-08-25T09:38:10.014Z,28.45
2022-08-25T09:39:05.002Z,28.09
2022-08-25T09:40:00.214Z,27.68
2022-08-25T09:40:55.241Z,27.26
2022-08-25T09:41:51.216Z,27.03
2022-08-25T09:42:46.456Z,26.93
2022-08-25T09:43:42.018Z,27.08
2022-08-25T09:44:37.569Z,27.14
2022-08-25T09:45:32.938Z,26.96
2022-08-25T09:46:28.484Z,26.78
2022-08-25T09:47:23.950Z,26.39
2022-08-25T09:48:19.578Z,26.12
2022-08-25T09:49:14.898Z,26.14
2022-08-25T09:50:10.277Z,26.50
2022-08-25T09:51:07.992Z,26.85
2022-08-25T09:52:02.577Z,27.20
2022-08-25T09:52:58.220Z,27.52
2022-08-25T09:53:53.539Z,27.81
2022-08-25T09:54:48.947Z,27.83
2022-08-25T09:55:44.613Z,27.78
2022-08-25T09:56:40.137Z,28.03
2022-08-25T09:57:35.700Z,28.25
2022-08-25T09:58:31.220Z,28.51
2022-08-25T09:59:34.236Z,28.51
2022-08-25T10:00:23.253Z,28.61
2022-08-25T10:01:17.820Z,28.42
2022-08-25T10:02:15.872Z,28.50
2022-08-25T10:03:08.769Z,28.45
2022-08-25T10:04:07.331Z,28.29
2022-08-25T10:05:03.880Z,28.28
2022-08-25T10:05:58.226Z,28.51
2022-08-25T10:06:53.925Z,28.77
2022-08-25T10:07:51.943Z,28.65
2022-08-25T10:08:45.229Z,27.83
2022-08-25T10:09:40.778Z,27.41
2022-08-25T10:10:36.185Z,27.27
2022-08-25T10:11:31.696Z,27.39
2022-08-25T10:12:27.773Z,27.67
2022-08-25T10:13:23.073Z,28.03
2022-08-25T10:14:17.484Z,28.14
2022-08-25T10:15:12.493Z,28.28
2022-08-25T10:16:17.682Z,28.21
2022-08-25T10:17:03.644Z,28.17
2022-08-25T10:17:57.721Z,28.13
2022-08-25T10:18:52.715Z,28.22
2022-08-25T10:19:47.781Z,28.28
2022-08-25T10:20:44.848Z,28.27
2022-08-25T10:21:37.987Z,28.31
2022-08-25T10:22:33.097Z,28.53
2022-08-25T10:23:28.214Z,28.37
2022-08-25T10:24:23.222Z,28.34
2022-08-25T10:25:18.314Z,28.53
2022-08-25T10:26:13.360Z,28.64
2022-08-25T10:27:09.069Z,28.66
2022-08-25T10:28:04.382Z,28.55
2022-08-25T10:28:59.240Z,28.19
2022-08-25T10:29:54.324Z,28.03
2022-08-25T10:30:49.453Z,28.03
2022-08-25T10:31:44.404Z,27.69
2022-08-25T10:32:39.419Z,27.63
2022-08-25T10:33:34.443Z,27.73
2022-08-25T10:34:29.459Z,27.92
2022-08-25T10:35:24.452Z,28.17
2022-08-25T10:36:20.444Z,28.35
2022-08-25T10:37:15.362Z,28.56
2022-08-25T10:38:10.995Z,28.85
2022-08-25T10:39:05.874Z,29.21
2022-08-25T10:40:02.013Z,29.46
2022-08-25T10:40:56.011Z,29.72
2022-08-25T10:41:53.337Z,29.88
2022-08-25T10:42:46.175Z,29.88
2022-08-25T10:43:41.221Z,29.96
2022-08-25T10:44:36.665Z,29.91
2022-08-25T10:45:31.962Z,29.87
2022-08-25T10:46:27.478Z,29.77
2022-08-25T10:47:22.932Z,29.83
2022-08-25T10:48:18.333Z,30.01
2022-08-25T10:49:13.708Z,30.17
2022-08-25T10:50:08.814Z,30.21
2022-08-25T10:51:03.818Z,30.23
2022-08-25T10:51:58.986Z,30.37
2022-08-25T10:52:54.120Z,30.44
2022-08-25T10:53:49.199Z,30.11
2022-08-25T10:54:44.241Z,29.94
2022-08-25T10:55:40.418Z,30.09
2022-08-25T10:56:40.929Z,30.12
2022-08-25T10:57:32.086Z,29.89
2022-08-25T10:58:30.814Z,29.96
2022-08-25T10:59:22.294Z,30.01
2022-08-25T11:00:18.188Z,30.05
2022-08-25T11:01:13.649Z,30.39
2022-08-25T11:02:09.236Z,30.33
2022-08-25T11:03:05.037Z,29.86
2022-08-25T11:04:00.303Z,29.46
2022-08-25T11:04:55.793Z,29.13
2022-08-25T11:05:51.392Z,28.87
2022-08-25T11:06:50.255Z,28.78
2022-08-25T11:07:43.359Z,28.91
2022-08-25T11:08:37.834Z,29.15
2022-08-25T11:09:33.467Z,29.49
2022-08-25T11:10:29.069Z,29.54
2022-08-25T11:11:24.564Z,29.43
2022-08-25T11:12:19.971Z,29.43
2022-08-25T11:13:15.063Z,29.49
2022-08-25T11:14:11.235Z,29.62
2022-08-25T11:15:05.116Z,29.90
2022-08-25T11:16:16.548Z,30.18
2022-08-25T11:16:56.319Z,30.26
2022-08-25T11:17:50.477Z,30.38
2022-08-25T11:18:45.228Z,30.47
2022-08-25T11:19:42.957Z,30.05
2022-08-25T11:20:38.055Z,29.62
2022-08-25T11:21:34.913Z,29.59
2022-08-25T11:22:28.087Z,29.84
2022-08-25T11:23:23.860Z,30.06
2022-08-25T11:24:18.231Z,29.87
2022-08-25T11:25:13.620Z,29.84
2022-08-25T11:26:09.168Z,30.10
2022-08-25T11:27:04.671Z,30.32
2022-08-25T11:28:00.192Z,30.42
2022-08-25T11:28:55.575Z,30.45
2022-08-25T11:29:51.095Z,30.35
2022-08-25T11:30:46.643Z,30.40
2022-08-25T11:31:42.166Z,30.40
2022-08-25T11:32:37.700Z,30.58
2022-08-25T11:33:33.166Z,30.41
2022-08-25T11:34:28.718Z,30.41
2022-08-25T11:35:24.139Z,30.30
2022-08-25T11:36:19.224Z,30.17
2022-08-25T11:37:14.316Z,30.25
2022-08-25T11:38:09.471Z,30.13
2022-08-25T11:39:04.414Z,30.00
2022-08-25T11:39:59.511Z,30.08
2022-08-25T11:40:54.506Z,30.18
2022-08-25T11:41:49.598Z,30.33
2022-08-25T11:42:45.508Z,30.24
2022-08-25T11:43:40.523Z,30.26
2022-08-25T11:44:35.401Z,30.19
2022-08-25T11:45:30.488Z,29.98
2022-08-25T11:46:27.821Z,29.55
2022-08-25T11:47:22.143Z,29.26
2022-08-25T11:48:17.594Z,28.94
2022-08-25T11:49:12.940Z,28.94
2022-08-25T11:50:08.608Z,28.93
2022-08-25T11:51:04.907Z,28.92
2022-08-25T11:52:02.780Z,29.18
2022-08-25T11:52:54.871Z,29.35